createdAt,value
2023-05-19T00:01:50.283Z,100462.68
2023-05-19T00:06:54.602Z,100460.13
2023-05-19T00:11:58.134Z,100462.02
2023-05-19T00:17:02.076Z,100459.95
2023-05-19T00:22:05.475Z,100456.09
2023-05-19T00:27:08.451Z,100454.75
2023-05-19T00:32:11.648Z,100451.02
2023-05-19T00:37:14.686Z,100448.77
2023-05-19T00:42:18.106Z,100448.04
2023-05-19T00:47:21.236Z,100448.38
2023-05-19T00:52:24.278Z,100451.15
2023-05-19T00:57:28.244Z,100454.38
2023-05-19T01:02:32.511Z,100452.09
2023-05-19T01:07:36.919Z,100449.54
2023-05-19T01:12:41.040Z,100446.73
2023-05-19T01:18:14.468Z,100444.69
2023-05-19T01:23:59.353Z,100442.77
2023-05-19T01:29:37.130Z,100442.73
2023-05-19T01:34:44.521Z,100444.30
2023-05-19T01:39:48.616Z,100440.08
2023-05-19T01:44:52.574Z,100442.41
2023-05-19T01:49:55.563Z,100441.43
2023-05-19T01:54:58.613Z,100435.69
2023-05-19T02:00:11.804Z,100435.27
2023-05-19T02:05:29.613Z,100440.17
2023-05-19T02:10:35.907Z,100437.73
2023-05-19T02:15:42.472Z,100431.86
2023-05-19T02:20:45.907Z,100430.02
2023-05-19T02:25:49.075Z,100430.42
2023-05-19T02:30:52.112Z,100429.63
2023-05-19T02:35:55.125Z,100425.72
2023-05-19T02:40:58.719Z,100426.48
2023-05-19T02:46:01.608Z,100430.86
2023-05-19T02:51:04.978Z,100428.17
2023-05-19T02:56:07.965Z,100425.45
2023-05-19T03:01:11.238Z,100428.21
2023-05-19T03:06:14.264Z,100425.20
2023-05-19T03:11:17.830Z,100424.09
2023-05-19T03:16:22.106Z,100424.97
2023-05-19T03:21:25.186Z,100427.01
2023-05-19T03:26:29.427Z,100436.91
2023-05-19T03:31:32.493Z,100440.11
2023-05-19T03:36:41.490Z,100437.17
2023-05-19T03:41:44.494Z,100433.16
2023-05-19T03:46:47.504Z,100429.61
2023-05-19T03:51:50.671Z,100430.46
2023-05-19T03:56:53.715Z,100435.86
2023-05-19T04:01:57.934Z,100438.39
2023-05-19T04:07:01.378Z,100439.33
2023-05-19T04:12:04.754Z,100442.49
2023-05-19T04:17:08.397Z,100441.11
2023-05-19T04:22:11.231Z,100442.02
2023-05-19T04:27:16.116Z,100444.58
2023-05-19T04:32:19.302Z,100446.17
2023-05-19T04:37:22.392Z,100445.57
2023-05-19T04:42:26.306Z,100445.52
2023-05-19T04:47:30.202Z,100449.56
2023-05-19T04:52:33.875Z,100448.00
2023-05-19T04:57:37.685Z,100447.34
2023-05-19T05:02:41.521Z,100451.19
2023-05-19T05:07:44.657Z,100447.88
2023-05-19T05:12:47.982Z,100447.30
2023-05-19T05:17:51.740Z,100447.63
2023-05-19T05:22:55.189Z,100448.72
2023-05-19T05:27:59.070Z,100447.65
2023-05-19T05:33:02.454Z,100452.84
2023-05-19T05:38:05.454Z,100456.21
2023-05-19T05:43:08.410Z,100455.52
2023-05-19T05:48:11.843Z,100459.35
2023-05-19T05:53:20.513Z,100453.86
2023-05-19T05:58:24.381Z,100451.60
2023-05-19T06:03:27.419Z,100452.65
2023-05-19T06:08:30.490Z,100454.88
2023-05-19T06:13:33.468Z,100453.66
2023-05-19T06:18:36.450Z,100446.38
2023-05-19T06:23:43.671Z,100451.09
2023-05-19T06:28:46.862Z,100458.86
2023-05-19T06:33:49.821Z,100455.66
2023-05-19T06:38:52.895Z,100456.33
2023-05-19T06:43:56.682Z,100453.05
2023-05-19T06:48:59.661Z,100455.62
2023-05-19T06:54:03.220Z,100458.91
2023-05-19T06:59:06.262Z,100461.04
2023-05-19T07:04:09.261Z,100456.98
2023-05-19T07:09:12.296Z,100463.47
2023-05-19T07:14:15.753Z,100463.54
2023-05-19T07:19:22.602Z,100462.81
2023-05-19T07:24:27.613Z,100460.95
2023-05-19T07:29:30.607Z,100458.30
2023-05-19T07:34:33.635Z,100460.52
2023-05-19T07:39:36.611Z,100462.86
2023-05-19T07:44:39.589Z,100463.01
2023-05-19T07:49:42.603Z,100460.77
2023-05-19T07:54:48.939Z,100463.59
2023-05-19T07:59:51.940Z,100459.52
2023-05-19T08:04:55.083Z,100453.85
2023-05-19T08:09:58.180Z,100453.02
2023-05-19T08:15:01.733Z,100453.73
2023-05-19T08:20:10.337Z,100457.86
2023-05-19T08:25:13.917Z,100463.48
2023-05-19T08:30:16.853Z,100467.63
2023-05-19T08:35:19.985Z,100467.67
2023-05-19T08:40:23.599Z,100474.48
2023-05-19T08:45:27.609Z,100476.53
2023-05-19T08:50:33.494Z,100478.56
2023-05-19T08:56:18.403Z,100479.67
2023-05-19T09:01:22.736Z,100481.48
2023-05-19T09:06:26.867Z,100477.38
2023-05-19T09:11:29.907Z,100478.66
2023-05-19T09:16:34.158Z,100474.67
2023-05-19T09:21:37.628Z,100475.77
2023-05-19T09:26:42.820Z,100475.55
2023-05-19T09:31:54.109Z,100479.38
2023-05-19T09:36:59.851Z,100478.38
2023-05-19T09:42:05.381Z,100475.78
2023-05-19T09:47:09.984Z,100470.42
2023-05-19T09:52:16.367Z,100468.09
2023-05-19T09:57:27.139Z,100467.86
2023-05-19T10:02:31.623Z,100464.49
2023-05-19T10:07:35.402Z,100458.27
2023-05-19T10:12:39.983Z,100455.95
2023-05-19T10:17:45.102Z,100460.13
2023-05-19T10:22:48.859Z,100455.45
2023-05-19T10:27:57.531Z,100458.16
2023-05-19T10:33:02.898Z,100457.54
2023-05-19T10:38:53.457Z,100453.39
2023-05-19T10:44:21.433Z,100458.77
2023-05-19T10:49:24.780Z,100457.92
2023-05-19T10:54:47.307Z,100454.45
2023-05-19T10:59:50.656Z,100456.68
2023-05-19T11:04:58.650Z,100458.12
2023-05-19T11:10:07.206Z,100460.35
2023-05-19T11:15:25.735Z,100457.98
2023-05-19T11:20:39.633Z,100456.46
2023-05-19T11:25:47.632Z,100453.09
2023-05-19T11:30:51.966Z,100457.96
2023-05-19T11:35:59.835Z,100462.84
2023-05-19T11:41:03.868Z,100466.09
2023-05-19T11:46:06.907Z,100466.13
2023-05-19T11:51:09.938Z,100466.54
2023-05-19T11:56:12.975Z,100463.00
2023-05-19T12:01:17.379Z,100462.20
2023-05-19T12:06:20.442Z,100465.38
2023-05-19T12:11:28.919Z,100472.92
2023-05-19T12:16:35.883Z,100471.39
2023-05-19T12:21:39.360Z,100470.31
2023-05-19T12:26:42.516Z,100470.10
2023-05-19T12:31:47.235Z,100465.19
2023-05-19T12:36:53.346Z,100462.51
2023-05-19T12:42:10.590Z,100460.98
2023-05-19T12:47:15.852Z,100461.96
2023-05-19T12:52:18.927Z,100456.45
2023-05-19T12:57:23.311Z,100455.36
2023-05-19T13:02:27.672Z,100453.69
2023-05-19T13:07:30.756Z,100458.77
2023-05-19T13:12:33.748Z,100463.08
2023-05-19T13:17:36.935Z,100459.79
2023-05-19T13:22:39.943Z,100456.99
2023-05-19T13:27:45.988Z,100456.35
2023-05-19T13:32:49.053Z,100452.25
2023-05-19T13:37:52.240Z,100454.73
2023-05-19T13:42:55.194Z,100455.27
2023-05-19T13:47:58.364Z,100452.88
2023-05-19T13:53:08.375Z,100457.66
2023-05-19T13:58:12.545Z,100451.79
2023-05-19T14:03:19.675Z,100450.39
2023-05-19T14:08:22.911Z,100446.52
2023-05-19T14:13:33.049Z,100452.04
2023-05-19T14:18:38.521Z,100450.14
2023-05-19T14:23:41.818Z,100450.42
2023-05-19T14:28:44.670Z,100450.25
2023-05-19T14:33:47.686Z,100450.09
2023-05-19T14:38:50.689Z,100452.41
2023-05-19T14:43:54.153Z,100461.25
2023-05-19T14:48:57.031Z,100462.13
2023-05-19T14:54:00.649Z,100467.63
2023-05-19T14:59:04.568Z,100471.76
2023-05-19T15:04:07.567Z,100469.20
2023-05-19T15:09:14.472Z,100472.36
2023-05-19T15:14:17.740Z,100466.44
2023-05-19T15:19:21.012Z,100465.27
2023-05-19T15:24:27.332Z,100465.39
2023-05-19T15:29:30.176Z,100468.45
2023-05-19T15:34:33.393Z,100458.89
2023-05-19T15:39:36.400Z,100461.64
2023-05-19T15:44:39.356Z,100459.33
2023-05-19T15:49:42.378Z,100456.41
2023-05-19T15:54:45.407Z,100455.41
2023-05-19T15:59:48.398Z,100454.95
2023-05-19T16:04:51.967Z,100449.90
2023-05-19T16:09:55.111Z,100456.50
2023-05-19T16:14:58.056Z,100458.50
2023-05-19T16:20:01.018Z,100462.70
2023-05-19T16:25:07.758Z,100466.75
2023-05-19T16:30:11.559Z,100462.46
2023-05-19T16:35:14.724Z,100467.20
2023-05-19T16:40:17.791Z,100463.00
2023-05-19T16:45:20.950Z,100457.10
2023-05-19T16:50:24.024Z,100454.87
2023-05-19T16:55:27.101Z,100451.02
2023-05-19T17:00:30.230Z,100450.67
2023-05-19T17:05:33.179Z,100453.91
2023-05-19T17:10:37.088Z,100449.86
2023-05-19T17:15:41.660Z,100452.98
2023-05-19T17:20:46.086Z,100459.75
2023-05-19T17:25:49.063Z,100460.83
2023-05-19T17:30:52.056Z,100466.47
2023-05-19T17:35:55.017Z,100466.98
2023-05-19T17:41:02.448Z,100469.58
2023-05-19T17:46:06.219Z,100471.45
2023-05-19T17:51:09.545Z,100473.24
2023-05-19T17:56:13.322Z,100480.02
2023-05-19T18:01:18.026Z,100479.16
2023-05-19T18:06:21.357Z,100475.93
2023-05-19T18:11:24.790Z,100481.72
2023-05-19T18:16:28.193Z,100479.59
2023-05-19T18:21:32.681Z,100482.76
2023-05-19T18:26:37.874Z,100488.92
2023-05-19T18:31:41.757Z,100493.92
2023-05-19T18:36:44.756Z,100495.41
2023-05-19T18:41:47.972Z,100494.48
2023-05-19T18:46:52.381Z,100498.24
2023-05-19T18:51:55.351Z,100500.45
2023-05-19T18:56:59.326Z,100507.91
2023-05-19T19:02:03.200Z,100508.48
2023-05-19T19:07:06.155Z,100511.34
2023-05-19T19:12:09.486Z,100516.42
2023-05-19T19:17:12.547Z,100520.13
2023-05-19T19:22:15.780Z,100524.21
2023-05-19T19:27:20.694Z,100527.64
2023-05-19T19:32:24.116Z,100524.38
2023-05-19T19:37:27.238Z,100526.98
2023-05-19T19:42:31.895Z,100525.90
2023-05-19T19:47:35.033Z,100531.08
2023-05-19T19:52:38.162Z,100531.03
2023-05-19T19:57:41.145Z,100531.91
2023-05-19T20:03:02.814Z,100536.30
2023-05-19T20:08:08.684Z,100545.48
2023-05-19T20:13:11.625Z,100545.73
2023-05-19T20:18:14.974Z,100548.86
2023-05-19T20:23:17.983Z,100555.34
2023-05-19T20:28:23.191Z,100559.65
2023-05-19T20:33:27.232Z,100550.30
2023-05-19T20:38:30.361Z,100547.91
2023-05-19T20:43:33.926Z,100550.20
2023-05-19T20:48:36.943Z,100541.14
2023-05-19T20:53:39.958Z,100543.52
2023-05-19T20:58:43.082Z,100539.66
2023-05-19T21:03:46.254Z,100535.25
2023-05-19T21:08:49.218Z,100533.64
2023-05-19T21:13:52.186Z,100534.60
2023-05-19T21:18:55.166Z,100529.04
2023-05-19T21:23:58.201Z,100531.11
2023-05-19T21:29:01.292Z,100527.23
2023-05-19T21:34:04.940Z,100529.21
2023-05-19T21:39:07.924Z,100529.17
2023-05-19T21:44:10.944Z,100536.74
2023-05-19T21:49:13.923Z,100533.05
2023-05-19T21:54:16.908Z,100530.84
2023-05-19T21:59:23.259Z,100530.03
2023-05-19T22:04:27.164Z,100524.90
2023-05-19T22:09:30.121Z,100524.49
2023-05-19T22:14:33.114Z,100518.83
2023-05-19T22:19:36.385Z,100520.59
2023-05-19T22:24:39.967Z,100517.85
2023-05-19T22:29:42.983Z,100516.69
2023-05-19T22:34:46.445Z,100515.11
2023-05-19T22:39:49.582Z,100507.95
2023-05-19T22:44:52.599Z,100507.75
2023-05-19T22:49:57.133Z,100507.49
2023-05-19T22:55:00.362Z,100511.05
2023-05-19T23:00:04.107Z,100508.05
2023-05-19T23:05:08.199Z,100503.29
2023-05-19T23:10:11.574Z,100504.57
2023-05-19T23:15:14.419Z,100504.52
2023-05-19T23:20:17.517Z,100500.63
2023-05-19T23:25:20.484Z,100504.76
2023-05-19T23:30:23.487Z,100507.00
2023-05-19T23:35:26.590Z,100505.94
2023-05-19T23:40:29.605Z,100502.39
2023-05-19T23:45:32.980Z,100500.39
2023-05-19T23:50:36.121Z,100497.46
2023-05-19T23:55:39.088Z,100500.31
